createdAt,value
2023-01-21T00:01:36.621Z,64.60
2023-01-21T00:04:06.443Z,73.00
2023-01-21T00:06:33.004Z,78.90
2023-01-21T00:08:59.656Z,77.95
2023-01-21T00:11:26.480Z,69.85
2023-01-21T00:13:53.071Z,73.40
2023-01-21T00:16:19.654Z,70.85
2023-01-21T00:18:47.909Z,70.90
2023-01-21T00:21:14.452Z,71.32
2023-01-21T00:23:41.219Z,70.57
2023-01-21T00:26:11.576Z,69.05
2023-01-21T00:28:38.691Z,66.63
2023-01-21T00:31:07.211Z,66.30
2023-01-21T00:33:35.345Z,67.05
2023-01-21T00:36:03.788Z,71.53
2023-01-21T00:38:31.137Z,70.43
2023-01-21T00:41:02.941Z,72.45
2023-01-21T00:43:29.759Z,73.72
2023-01-21T00:45:56.548Z,71.03
2023-01-21T00:48:23.318Z,67.95
2023-01-21T00:50:51.575Z,67.80
2023-01-21T00:53:18.589Z,73.88
2023-01-21T00:55:45.208Z,68.78
2023-01-21T00:58:11.840Z,67.97
2023-01-21T01:00:38.504Z,64.93
2023-01-21T01:03:05.490Z,63.53
2023-01-21T01:05:32.196Z,66.18
2023-01-21T01:07:58.816Z,71.05
2023-01-21T01:10:25.526Z,66.30
2023-01-21T01:12:52.093Z,68.60
2023-01-21T01:15:19.053Z,65.45
2023-01-21T01:17:45.660Z,60.42
2023-01-21T01:20:12.503Z,60.35
2023-01-21T01:22:39.107Z,70.07
2023-01-21T01:25:06.087Z,67.82
2023-01-21T01:27:32.718Z,67.00
2023-01-21T01:29:59.264Z,64.05
2023-01-21T01:32:25.819Z,58.10
2023-01-21T01:34:52.416Z,71.25
2023-01-21T01:37:18.976Z,60.60
2023-01-21T01:39:45.510Z,68.72
2023-01-21T01:42:15.760Z,65.22
2023-01-21T01:45:00.136Z,62.17
2023-01-21T01:47:32.464Z,62.03
2023-01-21T01:50:01.448Z,62.00
2023-01-21T01:52:29.704Z,61.47
2023-01-21T01:54:59.070Z,63.90
2023-01-21T01:57:32.282Z,61.75
2023-01-21T02:00:02.079Z,58.22
2023-01-21T02:02:28.806Z,59.15
2023-01-21T02:04:58.242Z,61.60
2023-01-21T02:07:29.364Z,65.03
2023-01-21T02:09:56.327Z,70.25
2023-01-21T02:12:23.278Z,60.92
2023-01-21T02:14:50.752Z,61.47
2023-01-21T02:17:40.221Z,62.83
2023-01-21T02:20:42.100Z,65.05
2023-01-21T02:23:36.061Z,67.75
2023-01-21T02:26:33.274Z,60.05
2023-01-21T02:29:16.221Z,64.03
2023-01-21T02:31:53.394Z,62.20
2023-01-21T02:34:43.247Z,65.22
2023-01-21T02:37:24.199Z,60.92
2023-01-21T02:40:11.871Z,62.05
2023-01-21T02:42:46.541Z,63.17
2023-01-21T02:45:29.360Z,61.22
2023-01-21T02:48:16.506Z,63.95
2023-01-21T02:50:46.099Z,62.08
2023-01-21T02:53:29.638Z,57.85
2023-01-21T02:56:01.379Z,58.67
2023-01-21T02:58:34.123Z,57.22
2023-01-21T03:01:11.281Z,63.00
2023-01-21T03:03:58.713Z,59.42
2023-01-21T03:06:37.544Z,61.22
2023-01-21T03:09:15.463Z,65.47
2023-01-21T03:11:49.454Z,70.15
2023-01-21T03:14:39.266Z,67.10
2023-01-21T03:17:20.119Z,64.90
2023-01-21T03:19:57.013Z,67.50
2023-01-21T03:22:29.920Z,72.35
2023-01-21T03:24:58.931Z,65.60
2023-01-21T03:27:28.515Z,68.63
2023-01-21T03:30:00.567Z,69.95
2023-01-21T03:32:29.763Z,68.60
2023-01-21T03:34:56.995Z,69.32
2023-01-21T03:37:35.817Z,74.55
2023-01-21T03:40:16.170Z,68.70
2023-01-21T03:42:44.708Z,73.30
2023-01-21T03:45:12.136Z,68.30
2023-01-21T03:47:43.124Z,67.88
2023-01-21T03:50:20.262Z,66.07
2023-01-21T03:52:47.066Z,76.00
2023-01-21T03:55:15.973Z,74.72
2023-01-21T03:57:42.720Z,68.15
2023-01-21T04:00:13.553Z,84.32
2023-01-21T04:02:40.151Z,59.53
2023-01-21T04:05:09.927Z,69.10
2023-01-21T04:07:36.660Z,66.93
2023-01-21T04:10:03.525Z,63.15
2023-01-21T04:12:30.134Z,64.57
2023-01-21T04:14:57.201Z,64.03
2023-01-21T04:17:23.920Z,65.03
2023-01-21T04:19:50.902Z,61.45
2023-01-21T04:22:17.580Z,55.42
2023-01-21T04:24:44.158Z,60.38
2023-01-21T04:27:10.743Z,64.18
2023-01-21T04:29:37.503Z,50.88
2023-01-21T04:32:04.322Z,50.60
2023-01-21T04:34:30.976Z,52.97
2023-01-21T04:36:57.562Z,50.65
2023-01-21T04:39:24.152Z,53.20
2023-01-21T04:41:50.726Z,53.15
2023-01-21T04:44:17.261Z,46.35
2023-01-21T04:46:43.870Z,46.92
2023-01-21T04:49:10.481Z,49.90
2023-01-21T04:51:37.268Z,52.53
2023-01-21T04:54:03.936Z,52.45
2023-01-21T04:56:30.530Z,50.78
2023-01-21T04:58:57.106Z,50.42
2023-01-21T05:01:23.690Z,48.92
2023-01-21T05:03:50.495Z,50.20
2023-01-21T05:06:17.075Z,48.15
2023-01-21T05:08:43.679Z,47.58
2023-01-21T05:11:15.385Z,51.47
2023-01-21T05:13:41.946Z,49.72
2023-01-21T05:16:10.081Z,49.95
2023-01-21T05:18:37.785Z,41.08
2023-01-21T05:21:05.211Z,49.55
2023-01-21T05:23:31.781Z,47.60
2023-01-21T05:25:58.341Z,46.92
2023-01-21T05:28:24.944Z,49.28
2023-01-21T05:30:51.533Z,49.58
2023-01-21T05:33:18.141Z,42.33
2023-01-21T05:35:44.725Z,45.85
2023-01-21T05:38:11.288Z,47.63
2023-01-21T05:40:38.061Z,49.90
2023-01-21T05:43:04.597Z,43.03
2023-01-21T05:45:31.165Z,49.30
2023-01-21T05:47:57.722Z,48.63
2023-01-21T05:50:24.361Z,41.53
2023-01-21T05:52:50.974Z,42.67
2023-01-21T05:55:17.552Z,38.55
2023-01-21T05:57:44.184Z,46.85
2023-01-21T06:00:11.339Z,46.50
2023-01-21T06:02:37.988Z,44.70
2023-01-21T06:05:04.876Z,38.17
2023-01-21T06:07:31.507Z,37.67
2023-01-21T06:09:58.118Z,39.58
2023-01-21T06:12:24.991Z,44.47
2023-01-21T06:14:51.598Z,44.50
2023-01-21T06:17:18.272Z,41.42
2023-01-21T06:19:44.830Z,41.22
2023-01-21T06:22:18.828Z,36.78
2023-01-21T06:24:45.513Z,40.63
2023-01-21T06:27:12.554Z,44.65
2023-01-21T06:29:39.175Z,41.00
2023-01-21T06:32:06.294Z,44.70
2023-01-21T06:34:32.951Z,37.22
2023-01-21T06:36:59.572Z,40.97
2023-01-21T06:39:26.153Z,42.20
2023-01-21T06:41:55.086Z,39.50
2023-01-21T06:44:22.467Z,37.40
2023-01-21T06:47:00.187Z,38.25
2023-01-21T06:49:27.477Z,41.78
2023-01-21T06:51:54.051Z,40.88
2023-01-21T06:54:20.631Z,36.10
2023-01-21T06:56:47.720Z,38.10
2023-01-21T06:59:14.363Z,42.42
2023-01-21T07:01:40.988Z,38.40
2023-01-21T07:04:07.780Z,52.40
2023-01-21T07:06:34.329Z,35.75
2023-01-21T07:09:00.966Z,35.40
2023-01-21T07:11:27.543Z,37.45
2023-01-21T07:13:54.127Z,35.47
2023-01-21T07:16:20.772Z,39.60
2023-01-21T07:18:47.467Z,39.13
2023-01-21T07:21:14.211Z,36.25
2023-01-21T07:23:40.929Z,31.92
2023-01-21T07:26:07.584Z,36.30
2023-01-21T07:28:34.333Z,37.60
2023-01-21T07:31:03.045Z,43.50
2023-01-21T07:33:30.295Z,36.90
2023-01-21T07:35:56.927Z,38.13
2023-01-21T07:38:23.527Z,35.53
2023-01-21T07:40:50.584Z,42.40
2023-01-21T07:43:17.611Z,34.85
2023-01-21T07:45:44.360Z,37.05
2023-01-21T07:48:11.451Z,39.05
2023-01-21T07:50:38.094Z,34.85
2023-01-21T07:53:04.808Z,39.90
2023-01-21T07:55:31.426Z,34.83
2023-01-21T07:57:58.923Z,36.13
2023-01-21T08:00:29.588Z,43.65
2023-01-21T08:02:57.487Z,47.00
2023-01-21T08:05:27.415Z,41.10
2023-01-21T08:07:57.441Z,40.88
2023-01-21T08:10:24.423Z,39.88
2023-01-21T08:12:51.022Z,40.28
2023-01-21T08:15:18.021Z,38.85
2023-01-21T08:17:47.120Z,42.78
2023-01-21T08:20:13.833Z,37.63
2023-01-21T08:22:40.520Z,38.53
2023-01-21T08:25:08.182Z,39.03
2023-01-21T08:27:34.775Z,38.40
2023-01-21T08:30:01.341Z,37.05
2023-01-21T08:32:31.195Z,41.35
2023-01-21T08:34:57.943Z,46.88
2023-01-21T08:37:24.609Z,43.47
2023-01-21T08:39:51.191Z,38.67
2023-01-21T08:42:17.763Z,33.50
2023-01-21T08:44:46.048Z,32.13
2023-01-21T08:47:12.688Z,43.90
2023-01-21T08:49:39.286Z,38.15
2023-01-21T08:52:06.063Z,36.15
2023-01-21T08:54:32.625Z,36.97
2023-01-21T08:56:59.249Z,34.17
2023-01-21T08:59:28.765Z,34.67
2023-01-21T09:01:56.256Z,35.50
2023-01-21T09:04:23.649Z,36.92
2023-01-21T09:06:50.434Z,39.58
2023-01-21T09:09:17.342Z,35.67
2023-01-21T09:11:44.132Z,34.92
2023-01-21T09:14:10.834Z,37.28
2023-01-21T09:16:37.675Z,54.65
2023-01-21T09:19:04.948Z,37.78
2023-01-21T09:21:34.694Z,33.90
2023-01-21T09:24:01.572Z,38.17
2023-01-21T09:26:28.479Z,35.65
2023-01-21T09:28:57.820Z,32.60
2023-01-21T09:31:26.267Z,32.72
2023-01-21T09:34:03.714Z,35.55
2023-01-21T09:36:33.215Z,40.30
2023-01-21T09:39:00.684Z,39.67
2023-01-21T09:41:38.426Z,31.58
2023-01-21T09:44:20.265Z,35.33
2023-01-21T09:47:09.733Z,32.08
2023-01-21T09:49:42.088Z,36.42
2023-01-21T09:52:35.617Z,36.97
2023-01-21T09:55:03.125Z,36.00
2023-01-21T09:57:29.664Z,36.33
2023-01-21T09:59:57.236Z,35.08
2023-01-21T10:02:24.830Z,29.88
2023-01-21T10:05:06.751Z,35.45
2023-01-21T10:07:42.640Z,55.78
2023-01-21T10:10:36.865Z,32.50
2023-01-21T10:13:18.617Z,33.53
2023-01-21T10:15:57.145Z,32.88
2023-01-21T10:18:30.783Z,35.35
2023-01-21T10:21:04.939Z,35.55
2023-01-21T10:23:43.113Z,38.80
2023-01-21T10:26:13.080Z,42.33
2023-01-21T10:28:44.533Z,53.80
2023-01-21T10:31:19.422Z,38.08
2023-01-21T10:33:46.253Z,42.90
2023-01-21T10:36:13.889Z,37.65
2023-01-21T10:38:54.326Z,30.38
2023-01-21T10:41:36.400Z,35.92
2023-01-21T10:44:22.839Z,37.05
2023-01-21T10:47:04.571Z,35.53
2023-01-21T10:49:44.740Z,32.58
2023-01-21T10:52:23.879Z,32.97
2023-01-21T10:55:20.978Z,35.40
2023-01-21T10:57:49.647Z,29.02
2023-01-21T11:00:35.642Z,26.88
2023-01-21T11:03:12.563Z,32.50
2023-01-21T11:05:39.890Z,23.58
2023-01-21T11:08:07.626Z,28.15
2023-01-21T11:10:34.356Z,29.63
2023-01-21T11:13:00.988Z,28.95
2023-01-21T11:15:33.526Z,32.65
2023-01-21T11:18:00.155Z,27.45
2023-01-21T11:20:41.061Z,27.90
2023-01-21T11:23:28.296Z,29.55
2023-01-21T11:26:08.707Z,26.38
2023-01-21T11:28:36.716Z,25.95
2023-01-21T11:31:24.960Z,26.55
2023-01-21T11:33:52.731Z,31.17
2023-01-21T11:36:21.174Z,24.00
2023-01-21T11:39:01.451Z,28.40
2023-01-21T11:41:28.876Z,27.42
2023-01-21T11:44:08.978Z,36.20
2023-01-21T11:46:38.617Z,24.70
2023-01-21T11:49:26.580Z,28.27
2023-01-21T11:52:15.751Z,24.40
2023-01-21T11:54:43.041Z,32.90
2023-01-21T11:57:28.671Z,29.23
2023-01-21T11:59:59.636Z,30.83
2023-01-21T12:02:37.782Z,31.85
2023-01-21T12:05:12.176Z,34.00
2023-01-21T12:07:43.373Z,33.13
2023-01-21T12:10:35.685Z,33.00
2023-01-21T12:13:13.875Z,36.95
2023-01-21T12:16:11.355Z,33.35
2023-01-21T12:21:49.870Z,33.17
2023-01-21T12:24:36.493Z,34.67
2023-01-21T12:27:18.838Z,35.17
2023-01-21T12:30:01.644Z,39.38
2023-01-21T12:32:37.335Z,32.38
2023-01-21T12:35:27.248Z,38.47
2023-01-21T12:38:02.156Z,35.63
2023-01-21T12:40:38.917Z,34.95
2023-01-21T12:43:14.151Z,32.38
2023-01-21T12:45:47.754Z,36.67
2023-01-21T12:48:21.821Z,42.45
2023-01-21T12:51:01.415Z,34.95
2023-01-21T12:53:44.322Z,39.50
2023-01-21T12:56:41.398Z,37.60
2023-01-21T12:59:07.963Z,37.65
2023-01-21T13:01:49.219Z,38.63
2023-01-21T13:04:32.148Z,29.00
2023-01-21T13:07:02.970Z,30.77
2023-01-21T13:09:38.719Z,34.00
2023-01-21T13:12:21.578Z,29.27
2023-01-21T13:14:58.193Z,31.27
2023-01-21T13:17:30.930Z,37.60
2023-01-21T13:19:59.198Z,26.52
2023-01-21T13:22:45.112Z,30.90
2023-01-21T13:25:27.160Z,25.45
2023-01-21T13:28:10.140Z,27.85
2023-01-21T13:30:53.618Z,26.27
2023-01-21T13:33:28.575Z,25.10
2023-01-21T13:36:25.208Z,21.95
2023-01-21T13:39:10.358Z,26.75
2023-01-21T13:41:50.406Z,29.33
2023-01-21T13:44:48.084Z,28.05
2023-01-21T13:47:42.058Z,26.67
2023-01-21T13:50:24.918Z,30.88
2023-01-21T13:53:26.938Z,32.22
2023-01-21T13:56:02.370Z,29.08
2023-01-21T13:58:30.997Z,31.48
2023-01-21T14:01:12.983Z,31.27
2023-01-21T14:04:02.985Z,36.20
2023-01-21T14:06:40.506Z,32.55
2023-01-21T14:09:20.424Z,30.58
2023-01-21T14:11:57.711Z,35.50
2023-01-21T14:14:39.267Z,33.67
2023-01-21T14:17:36.433Z,32.38
2023-01-21T14:20:31.489Z,34.47
2023-01-21T14:23:20.833Z,32.97
2023-01-21T14:26:19.539Z,36.60
2023-01-21T14:29:16.524Z,29.15
2023-01-21T14:31:49.827Z,34.17
2023-01-21T14:34:22.447Z,32.65
2023-01-21T14:37:02.559Z,31.35
2023-01-21T14:39:46.896Z,29.63
2023-01-21T14:42:17.675Z,32.53
2023-01-21T14:45:06.095Z,34.53
2023-01-21T14:47:32.706Z,28.88
2023-01-21T14:50:00.024Z,25.88
2023-01-21T14:52:33.108Z,26.98
2023-01-21T14:55:00.419Z,25.23
2023-01-21T14:57:28.027Z,23.83
2023-01-21T15:00:04.280Z,24.35
2023-01-21T15:02:35.627Z,24.83
2023-01-21T15:05:15.641Z,27.15
2023-01-21T15:07:45.855Z,27.27
2023-01-21T15:10:20.540Z,25.65
2023-01-21T15:12:53.779Z,23.65
2023-01-21T15:15:29.641Z,29.60
2023-01-21T15:17:57.655Z,24.45
2023-01-21T15:20:44.941Z,31.50
2023-01-21T15:23:38.654Z,26.95
2023-01-21T15:26:19.263Z,27.80
2023-01-21T15:28:46.919Z,24.52
2023-01-21T15:31:13.588Z,26.02
2023-01-21T15:33:57.220Z,31.23
2023-01-21T15:36:35.452Z,29.27
2023-01-21T15:39:12.283Z,28.63
2023-01-21T15:41:51.972Z,30.05
2023-01-21T15:44:18.552Z,33.85
2023-01-21T15:46:51.624Z,23.67
2023-01-21T15:49:37.807Z,26.55
2023-01-21T15:52:32.717Z,26.05
2023-01-21T15:55:00.480Z,24.10
2023-01-21T15:57:56.500Z,24.45
2023-01-21T16:00:24.136Z,24.50
2023-01-21T16:03:24.651Z,21.40
2023-01-21T16:06:19.869Z,22.45
2023-01-21T16:09:05.251Z,21.00
2023-01-21T16:12:02.317Z,24.50
2023-01-21T16:14:52.904Z,23.92
2023-01-21T16:17:35.559Z,24.17
2023-01-21T16:20:06.126Z,26.40
2023-01-21T16:22:38.292Z,25.45
2023-01-21T16:25:10.640Z,21.75
2023-01-21T16:27:37.251Z,22.08
2023-01-21T16:30:12.044Z,26.52
2023-01-21T16:32:38.715Z,24.60
2023-01-21T16:35:06.239Z,26.63
2023-01-21T16:37:33.094Z,24.17
2023-01-21T16:40:30.372Z,28.20
2023-01-21T16:43:16.880Z,27.67
2023-01-21T16:45:50.282Z,25.13
2023-01-21T16:48:22.070Z,28.85
2023-01-21T16:50:48.847Z,25.75
2023-01-21T16:53:18.099Z,21.27
2023-01-21T16:55:47.226Z,23.77
2023-01-21T16:58:37.829Z,23.60
2023-01-21T17:01:10.342Z,24.05
2023-01-21T17:03:38.196Z,23.80
2023-01-21T17:06:11.066Z,25.65
2023-01-21T17:08:38.459Z,29.25
2023-01-21T17:11:11.027Z,25.70
2023-01-21T17:13:42.923Z,28.90
2023-01-21T17:16:24.031Z,24.88
2023-01-21T17:19:07.487Z,24.98
2023-01-21T17:21:40.051Z,28.38
2023-01-21T17:24:19.499Z,29.77
2023-01-21T17:26:49.529Z,29.48
2023-01-21T17:29:19.204Z,27.15
2023-01-21T17:31:53.892Z,26.90
2023-01-21T17:34:23.837Z,21.88
2023-01-21T17:36:52.621Z,24.15
2023-01-21T17:39:49.895Z,27.17
2023-01-21T17:42:20.219Z,26.65
2023-01-21T17:44:50.206Z,30.35
2023-01-21T17:47:23.578Z,25.50
2023-01-21T17:49:58.096Z,30.35
2023-01-21T17:52:25.160Z,30.10
2023-01-21T17:55:09.606Z,37.13
2023-01-21T17:57:36.301Z,30.88
2023-01-21T18:00:23.905Z,30.58
2023-01-21T18:02:50.554Z,33.50
2023-01-21T18:05:17.423Z,34.53
2023-01-21T18:07:44.195Z,31.65
2023-01-21T18:10:16.822Z,34.42
2023-01-21T18:12:43.451Z,27.20
2023-01-21T18:15:14.749Z,31.15
2023-01-21T18:17:46.044Z,33.05
2023-01-21T18:20:16.765Z,33.13
2023-01-21T18:22:43.551Z,35.60
2023-01-21T18:25:13.256Z,30.73
2023-01-21T18:27:41.224Z,34.78
2023-01-21T18:30:14.184Z,30.55
2023-01-21T18:32:42.716Z,32.75
2023-01-21T18:35:10.527Z,28.92
2023-01-21T18:37:37.424Z,30.88
2023-01-21T18:40:05.805Z,34.95
2023-01-21T18:42:33.206Z,35.38
2023-01-21T18:44:59.827Z,34.22
2023-01-21T18:47:26.476Z,29.15
2023-01-21T18:49:53.213Z,32.30
2023-01-21T18:52:21.286Z,31.25
2023-01-21T18:54:47.927Z,33.95
2023-01-21T18:57:18.455Z,30.20
2023-01-21T18:59:45.064Z,38.30
2023-01-21T19:02:15.999Z,30.67
2023-01-21T19:04:42.990Z,30.15
2023-01-21T19:07:14.973Z,26.58
2023-01-21T19:09:46.081Z,31.33
2023-01-21T19:12:14.775Z,27.83
2023-01-21T19:14:41.377Z,29.13
2023-01-21T19:17:14.296Z,36.10
2023-01-21T19:19:41.440Z,27.55
2023-01-21T19:22:14.995Z,25.88
2023-01-21T19:24:42.197Z,31.83
2023-01-21T19:27:23.069Z,30.48
2023-01-21T19:29:49.638Z,30.58
2023-01-21T19:32:16.330Z,32.08
2023-01-21T19:34:43.059Z,29.42
2023-01-21T19:37:14.232Z,30.88
2023-01-21T19:39:40.872Z,31.58
2023-01-21T19:42:10.849Z,36.08
2023-01-21T19:44:39.389Z,34.35
2023-01-21T19:47:14.284Z,31.67
2023-01-21T19:49:40.893Z,34.88
2023-01-21T19:52:09.142Z,31.08
2023-01-21T19:54:35.726Z,33.13
2023-01-21T19:57:02.328Z,30.55
2023-01-21T19:59:28.937Z,31.10
2023-01-21T20:01:55.583Z,40.42
2023-01-21T20:04:25.479Z,40.72
2023-01-21T20:06:52.209Z,35.78
2023-01-21T20:09:22.019Z,32.75
2023-01-21T20:11:48.609Z,35.75
2023-01-21T20:14:15.230Z,34.95
2023-01-21T20:16:50.042Z,36.42
2023-01-21T20:19:19.141Z,37.72
2023-01-21T20:21:59.935Z,34.25
2023-01-21T20:24:30.090Z,33.40
2023-01-21T20:26:57.259Z,31.55
2023-01-21T20:29:23.934Z,33.50
2023-01-21T20:31:51.990Z,34.17
2023-01-21T20:34:18.561Z,33.15
2023-01-21T20:36:48.401Z,30.92
2023-01-21T20:39:15.301Z,32.50
2023-01-21T20:41:43.401Z,28.67
2023-01-21T20:44:10.550Z,29.98
2023-01-21T20:46:37.301Z,30.30
2023-01-21T20:49:03.943Z,32.42
2023-01-21T20:51:30.693Z,32.78
2023-01-21T20:53:57.254Z,37.30
2023-01-21T20:56:27.059Z,38.95
2023-01-21T20:58:54.170Z,37.00
2023-01-21T21:01:23.583Z,30.58
2023-01-21T21:03:50.943Z,29.60
2023-01-21T21:06:21.373Z,37.53
2023-01-21T21:08:50.352Z,30.98
2023-01-21T21:11:18.447Z,30.40
2023-01-21T21:13:48.346Z,31.42
2023-01-21T21:16:27.823Z,28.05
2023-01-21T21:18:54.540Z,32.88
2023-01-21T21:21:23.536Z,36.03
2023-01-21T21:23:51.593Z,34.65
2023-01-21T21:26:23.448Z,31.02
2023-01-21T21:28:51.562Z,27.52
2023-01-21T21:31:18.291Z,29.70
2023-01-21T21:33:44.947Z,33.17
2023-01-21T21:36:14.786Z,35.58
2023-01-21T21:38:41.964Z,26.13
2023-01-21T21:41:30.039Z,32.78
2023-01-21T21:43:56.630Z,27.52
2023-01-21T21:46:38.493Z,32.90
2023-01-21T21:49:05.060Z,28.55
2023-01-21T21:51:31.870Z,33.13
2023-01-21T21:53:58.520Z,32.45
2023-01-21T21:56:25.115Z,29.10
2023-01-21T21:58:52.137Z,31.00
2023-01-21T22:01:22.069Z,28.27
2023-01-21T22:03:48.996Z,31.98
2023-01-21T22:06:18.440Z,31.55
2023-01-21T22:08:45.488Z,33.90
2023-01-21T22:11:15.782Z,27.77
2023-01-21T22:13:43.639Z,28.02
2023-01-21T22:16:14.183Z,27.63
2023-01-21T22:18:41.347Z,25.92
2023-01-21T22:21:13.723Z,28.48
2023-01-21T22:23:40.358Z,27.25
2023-01-21T22:26:09.625Z,27.65
2023-01-21T22:28:36.378Z,26.52
2023-01-21T22:31:05.014Z,31.95
2023-01-21T22:33:32.314Z,28.95
2023-01-21T22:36:01.939Z,28.25
2023-01-21T22:38:28.525Z,29.25
2023-01-21T22:40:55.751Z,27.55
2023-01-21T22:43:22.367Z,25.85
2023-01-21T22:45:49.203Z,29.95
2023-01-21T22:48:16.369Z,27.45
2023-01-21T22:50:44.467Z,31.73
2023-01-21T22:53:12.599Z,31.17
2023-01-21T22:55:39.980Z,33.67
2023-01-21T22:58:07.031Z,30.88
2023-01-21T23:00:39.421Z,30.02
2023-01-21T23:03:07.799Z,31.80
2023-01-21T23:05:35.416Z,26.25
2023-01-21T23:08:02.008Z,28.33
2023-01-21T23:10:28.636Z,32.63
2023-01-21T23:12:55.407Z,30.35
2023-01-21T23:15:23.173Z,29.58
2023-01-21T23:17:51.325Z,26.73
2023-01-21T23:20:18.388Z,33.63
2023-01-21T23:22:45.887Z,32.92
2023-01-21T23:25:14.395Z,34.13
2023-01-21T23:27:41.443Z,32.22
2023-01-21T23:30:09.773Z,38.90
2023-01-21T23:32:36.426Z,38.83
2023-01-21T23:35:03.036Z,37.10
2023-01-21T23:37:29.603Z,33.58
2023-01-21T23:39:56.235Z,37.10
2023-01-21T23:42:23.683Z,33.55
2023-01-21T23:44:51.173Z,40.20
2023-01-21T23:47:18.412Z,41.00
2023-01-21T23:49:44.964Z,35.13
2023-01-21T23:52:12.514Z,33.78
2023-01-21T23:54:40.337Z,33.38
2023-01-21T23:57:07.816Z,38.70
2023-01-21T23:59:35.587Z,35.35
